Time;durP1;ratioP1;P1;durP2;ratioP2;P2;SDS_P1;SDS_P2;PMS_P1;PMS_P2;Temp;Humidity;BMP_temperature;BMP_pressure;BME280_temperature;BME280_humidity;BME280_pressure;Samples;Min_cycle;Max_cycle;Signal;HPM_P1;HPM_P2
2022/05/21 00:01:17;;;;;;;6.05;4.20;;;;;;;15.04;51.29;98883.54;1735448;82;21105;-75
2022/05/21 00:03:44;;;;;;;5.50;3.25;;;;;;;15.02;51.52;98882.79;1736162;82;21517;-76
2022/05/21 00:06:11;;;;;;;10.30;3.70;;;;;;;15.00;52.01;98891.31;1735692;82;21565;-75
2022/05/21 00:08:37;;;;;;;6.50;3.27;;;;;;;14.95;52.22;98882.81;1735925;82;21564;-75
2022/05/21 00:11:04;;;;;;;8.33;3.45;;;;;;;14.92;52.49;98882.52;1735458;82;22405;-76
2022/05/21 00:13:32;;;;;;;9.98;3.83;;;;;;;14.91;52.73;98890.55;1735465;82;21283;-75
2022/05/21 00:15:59;;;;;;;5.72;3.50;;;;;;;14.86;53.16;98886.41;1735791;82;21042;-75
2022/05/21 00:18:25;;;;;;;10.20;3.85;;;;;;;14.84;53.43;98879.48;1735717;82;21112;-75
2022/05/21 00:20:51;;;;;;;8.33;3.90;;;;;;;14.83;53.92;98879.97;1735997;82;21089;-75
2022/05/21 00:23:29;;;;;;;12.07;3.85;;;;;;;14.84;54.31;98875.52;1735622;82;21090;-76
2022/05/21 00:26:06;;;;;;;12.10;3.90;;;;;;;14.84;54.24;98881.69;1734207;82;21065;-76
2022/05/21 00:28:34;;;;;;;5.17;3.20;;;;;;;14.83;54.11;98873.35;1738303;81;21057;-75
2022/05/21 00:31:03;;;;;;;8.98;3.33;;;;;;;14.82;54.51;98868.98;1738443;82;21021;-74
2022/05/21 00:33:29;;;;;;;7.90;3.83;;;;;;;14.80;54.92;98870.05;1738662;82;21108;-75
2022/05/21 00:35:56;;;;;;;11.22;4.42;;;;;;;14.78;55.17;98869.30;1693144;82;21118;-76
2022/05/21 00:38:22;;;;;;;11.48;4.35;;;;;;;14.75;55.26;98862.87;1680394;85;21131;-76
2022/05/21 00:40:50;;;;;;;7.97;4.10;;;;;;;14.72;55.49;98867.86;1680705;85;21178;-76
2022/05/21 00:43:52;;;;;;;12.58;3.95;;;;;;;14.71;55.87;98865.31;1680566;85;21072;-76
2022/05/21 00:46:31;;;;;;;7.92;3.50;;;;;;;14.69;56.11;98866.72;1680267;85;21169;-76
2022/05/21 00:49:14;;;;;;;5.78;3.62;;;;;;;14.68;56.44;98865.05;1680823;85;21519;-76
2022/05/21 00:51:55;;;;;;;10.18;3.70;;;;;;;14.67;56.56;98872.59;1680436;85;21606;-76
2022/05/21 00:54:26;;;;;;;6.25;3.70;;;;;;;14.66;56.82;98870.91;1680612;85;21633;-76
2022/05/21 00:57:24;;;;;;;8.90;3.52;;;;;;;14.64;57.03;98871.01;1680522;85;21084;-76
2022/05/21 00:59:57;;;;;;;7.22;3.35;;;;;;;14.64;57.08;98878.08;1680586;85;21551;-76
2022/05/21 01:02:34;;;;;;;11.08;4.12;;;;;;;14.61;57.66;98877.81;1680383;85;21547;-76
2022/05/21 01:05:02;;;;;;;14.55;3.60;;;;;;;14.60;57.93;98875.25;1680454;85;21155;-76
2022/05/21 01:07:29;;;;;;;14.70;3.92;;;;;;;14.59;58.28;98880.16;1680693;85;21543;-76
2022/05/21 01:09:57;;;;;;;13.35;3.75;;;;;;;14.56;58.51;98877.66;1680991;85;21581;-76
2022/05/21 01:12:26;;;;;;;4.72;3.22;;;;;;;14.55;58.65;98873.33;1680374;85;21048;-75
2022/05/21 01:14:56;;;;;;;7.97;3.35;;;;;;;14.55;58.77;98872.00;1680644;85;21657;-76
2022/05/21 01:17:23;;;;;;;7.70;2.92;;;;;;;14.55;59.01;98879.95;1655139;85;21152;-75
2022/05/21 01:20:07;;;;;;;7.70;3.47;;;;;;;14.55;59.37;98881.27;1680528;85;21155;-76
2022/05/21 01:22:45;;;;;;;8.23;3.65;;;;;;;14.54;59.80;98875.59;1621041;85;21119;-75
2022/05/21 01:25:14;;;;;;;8.90;3.80;;;;;;;14.53;59.70;98876.06;1680342;85;21102;-75
2022/05/21 01:27:41;;;;;;;7.92;3.55;;;;;;;14.51;60.36;98883.26;1689864;83;21130;-75
2022/05/21 01:30:09;;;;;;;10.90;3.45;;;;;;;14.45;60.93;98873.87;1695425;84;21080;-75
2022/05/21 01:32:36;;;;;;;10.95;3.80;;;;;;;14.45;61.04;98873.03;1738485;82;20999;-75
2022/05/21 01:35:04;;;;;;;6.83;3.80;;;;;;;14.45;61.19;98871.23;1738323;82;21542;-76
2022/05/21 01:37:31;;;;;;;11.12;3.90;;;;;;;14.46;61.58;98872.94;1738348;82;20999;-75
2022/05/21 01:39:57;;;;;;;4.90;3.52;;;;;;;14.45;61.46;98865.94;1738750;82;21078;-75
2022/05/21 01:42:24;;;;;;;12.23;3.37;;;;;;;14.47;61.78;98866.72;1738576;82;21137;-75
2022/05/21 01:44:52;;;;;;;10.45;3.30;;;;;;;14.48;61.87;98871.05;1738469;82;21134;-75
2022/05/21 01:47:20;;;;;;;8.80;3.55;;;;;;;14.53;61.73;98867.28;1738667;82;20975;-76
2022/05/21 01:49:47;;;;;;;8.25;3.45;;;;;;;14.53;61.92;98865.48;1738770;82;21490;-75
2022/05/21 01:52:14;;;;;;;7.67;3.60;;;;;;;14.53;62.10;98865.48;1738507;82;21255;-75
2022/05/21 01:54:41;;;;;;;7.25;3.37;;;;;;;14.54;62.23;98861.90;1738478;82;21352;-75
2022/05/21 01:57:09;;;;;;;9.50;3.70;;;;;;;14.56;62.17;98856.48;1738839;82;21130;-76
2022/05/21 01:59:36;;;;;;;10.00;3.85;;;;;;;14.56;62.28;98859.13;1738742;82;21117;-76
2022/05/21 02:02:03;;;;;;;8.13;3.58;;;;;;;14.56;62.50;98861.77;1738648;82;21030;-76
2022/05/21 02:04:30;;;;;;;8.25;3.25;;;;;;;14.54;62.73;98853.95;1738576;82;21098;-75
2022/05/21 02:06:56;;;;;;;4.78;3.30;;;;;;;14.56;62.69;98852.51;1738267;82;21118;-76
2022/05/21 02:09:23;;;;;;;8.10;3.40;;;;;;;14.54;62.74;98849.98;1738882;82;21067;-75
2022/05/21 02:11:49;;;;;;;14.15;3.90;;;;;;;14.54;62.97;98851.31;1738638;82;21034;-75
2022/05/21 02:14:18;;;;;;;9.45;3.92;;;;;;;14.53;63.00;98851.41;1738492;82;21104;-76
2022/05/21 02:16:45;;;;;;;12.50;3.70;;;;;;;14.52;63.13;98850.53;1738463;82;21498;-75
2022/05/21 02:19:11;;;;;;;16.65;3.70;;;;;;;14.52;63.41;98847.88;1738690;82;20932;-76
2022/05/21 02:21:40;;;;;;;6.97;3.50;;;;;;;14.54;63.47;98853.08;1738623;82;20970;-76
2022/05/21 02:24:10;;;;;;;8.68;3.20;;;;;;;14.55;63.78;98852.15;1738434;82;21074;-76
2022/05/21 02:26:38;;;;;;;3.83;3.47;;;;;;;14.56;63.77;98853.83;1738728;82;21577;-75
2022/05/21 02:29:05;;;;;;;21.48;10.18;;;;;;;14.56;63.87;98850.73;1749205;81;21520;-76
2022/05/21 02:31:32;;;;;;;28.55;15.60;;;;;;;14.59;63.95;98845.73;1750663;81;21041;-75
2022/05/21 02:33:58;;;;;;;81.08;33.55;;;;;;;14.64;63.97;98846.30;1750577;82;21037;-75
2022/05/21 02:39:25;;;;;;;;;;;;;;;14.68;63.93;98851.80;1753428;82;21078;-76
2022/05/21 02:41:52;;;;;;;33.60;14.00;;;;;;;14.71;64.00;98851.62;1720871;83;21741;-75
2022/05/21 02:44:19;;;;;;;40.67;13.28;;;;;;;14.75;63.90;98849.63;1723971;82;21004;-76
2022/05/21 02:46:47;;;;;;;47.33;20.08;;;;;;;14.77;63.99;98844.59;1748597;82;21026;-76
2022/05/21 02:49:14;;;;;;;42.75;17.67;;;;;;;14.80;63.97;98852.35;1750608;82;21130;-75
2022/05/21 02:51:41;;;;;;;30.25;16.45;;;;;;;14.82;64.00;98847.80;1724166;83;21130;-76
2022/05/21 02:54:09;;;;;;;50.43;24.40;;;;;;;14.87;64.15;98842.22;1724486;83;21101;-76
2022/05/21 02:56:36;;;;;;;14.55;6.12;;;;;;;14.92;64.10;98843.27;1721585;83;20980;-76
2022/05/21 02:59:06;;;;;;;36.63;14.28;;;;;;;14.95;64.04;98841.27;1683443;82;21046;-76
2022/05/21 03:01:33;;;;;;;15.65;7.17;;;;;;;14.97;63.96;98838.04;1723722;83;22372;-74
2022/05/21 03:04:01;;;;;;;39.55;11.45;;;;;;;15.01;63.95;98843.99;1724444;83;21109;-76
2022/05/21 03:06:27;;;;;;;45.75;15.15;;;;;;;15.02;63.78;98843.05;1723985;83;21145;-76
2022/05/21 03:11:38;;;;;;;11.48;4.90;;;;;;;15.05;63.97;98834.91;1724160;83;21054;-76
2022/05/21 03:14:04;;;;;;;6.83;3.75;;;;;;;15.06;63.95;98835.27;1723748;83;21344;-75
2022/05/21 03:16:31;;;;;;;13.45;6.20;;;;;;;15.08;64.08;98829.42;1723743;83;21051;-75
2022/05/21 03:18:58;;;;;;;12.75;5.40;;;;;;;15.08;64.07;98832.08;1724045;83;21897;-76
2022/05/21 03:21:25;;;;;;;14.13;6.62;;;;;;;15.08;64.24;98822.80;1724364;83;21113;-77
2022/05/21 03:23:51;;;;;;;16.35;5.33;;;;;;;15.10;64.24;98814.27;1723964;83;21110;-76
2022/05/21 03:26:18;;;;;;;18.48;6.22;;;;;;;15.15;64.36;98816.64;1723979;83;21050;-76
2022/05/21 03:28:44;;;;;;;16.32;5.30;;;;;;;15.15;64.33;98812.17;1722999;83;21050;-76
2022/05/21 03:31:11;;;;;;;17.75;6.22;;;;;;;15.17;64.43;98815.56;1724830;83;21807;-76
2022/05/21 03:33:38;;;;;;;19.17;6.30;;;;;;;15.21;64.40;98822.39;1722609;83;21527;-76
2022/05/21 03:36:05;;;;;;;18.45;6.53;;;;;;;15.25;64.43;98815.08;1727938;82;21638;-76
2022/05/21 03:38:33;;;;;;;26.60;10.03;;;;;;;15.29;64.42;98807.78;1739139;81;21054;-76
2022/05/21 03:41:00;;;;;;;18.80;6.30;;;;;;;15.32;64.68;98803.61;1739449;82;21510;-76
2022/05/21 03:43:26;;;;;;;15.00;6.35;;;;;;;15.35;64.48;98806.06;1739280;82;21561;-75
2022/05/21 03:45:53;;;;;;;15.32;5.97;;;;;;;15.37;64.49;98802.34;1738803;82;21541;-76
2022/05/21 03:48:21;;;;;;;19.00;5.37;;;;;;;15.43;64.50;98801.08;1739253;82;21054;-76
2022/05/21 03:50:48;;;;;;;16.23;6.35;;;;;;;15.48;64.65;98797.64;1738971;82;21082;-75
2022/05/21 03:53:16;;;;;;;20.45;9.38;;;;;;;15.55;64.65;98801.61;1739341;81;20999;-76
2022/05/21 03:55:44;;;;;;;35.73;18.15;;;;;;;15.63;64.42;98788.31;1739036;82;21601;-76
2022/05/21 03:58:11;;;;;;;26.42;11.63;;;;;;;15.71;64.39;98779.36;1738915;82;21519;-75
2022/05/21 04:00:39;;;;;;;23.40;10.25;;;;;;;15.78;64.31;98776.23;1739145;81;21070;-76
2022/05/21 04:03:06;;;;;;;18.73;8.03;;;;;;;15.89;64.25;98771.52;1738998;82;21133;-75
2022/05/21 04:05:36;;;;;;;14.78;4.83;;;;;;;15.97;64.20;98767.86;1739180;81;21537;-76
2022/05/21 04:08:04;;;;;;;17.45;4.65;;;;;;;16.07;63.88;98752.61;1738908;81;21054;-75
2022/05/21 04:10:30;;;;;;;9.83;4.00;;;;;;;16.12;63.99;98760.64;1738910;81;21077;-75
2022/05/21 04:12:57;;;;;;;11.20;5.55;;;;;;;16.19;63.86;98760.20;1738946;81;21124;-75
2022/05/21 04:15:25;;;;;;;10.85;5.12;;;;;;;16.22;63.50;98763.48;1739196;81;21124;-76
2022/05/21 04:17:56;;;;;;;29.82;9.05;;;;;;;16.26;63.43;98764.98;1739207;82;20995;-75
2022/05/21 04:20:23;;;;;;;20.77;5.60;;;;;;;16.29;63.37;98774.06;1739084;82;22229;-76
2022/05/21 04:22:50;;;;;;;20.88;8.38;;;;;;;16.32;63.38;98786.25;1739510;82;21003;-76
2022/05/21 04:25:17;;;;;;;18.45;5.42;;;;;;;16.32;63.47;98773.85;1739317;82;21055;-76
2022/05/21 04:27:43;;;;;;;20.02;10.58;;;;;;;16.34;63.16;98775.91;1739294;82;21573;-76
2022/05/21 04:30:16;;;;;;;15.68;6.10;;;;;;;16.39;63.38;98772.08;1735933;82;21416;-76
2022/05/21 04:32:44;;;;;;;13.03;6.28;;;;;;;16.44;63.27;98784.09;1736100;82;22258;-76
2022/05/21 04:35:13;;;;;;;13.72;4.90;;;;;;;16.56;62.62;98777.06;1735266;82;21157;-75
2022/05/21 04:37:41;;;;;;;12.95;5.03;;;;;;;16.63;62.60;98775.66;1735338;82;21034;-75
2022/05/21 04:40:11;;;;;;;8.43;3.77;;;;;;;16.72;62.62;98780.30;1757033;81;21125;-75
2022/05/21 04:42:38;;;;;;;7.55;4.22;;;;;;;16.82;62.13;98776.98;1757171;81;21074;-75
2022/05/21 04:45:05;;;;;;;13.03;4.08;;;;;;;16.90;61.61;98773.33;1725313;83;21082;-75
2022/05/21 04:47:32;;;;;;;8.50;4.25;;;;;;;16.97;61.41;98773.24;1725445;83;21709;-76
2022/05/21 04:49:58;;;;;;;14.18;3.92;;;;;;;17.03;61.35;98757.32;1725467;83;22105;-76
2022/05/21 04:52:25;;;;;;;13.22;4.20;;;;;;;17.11;61.50;98762.09;1725461;83;21083;-76
2022/05/21 04:54:51;;;;;;;7.35;3.50;;;;;;;17.22;61.41;98763.48;1756736;81;21132;-75
2022/05/21 04:57:18;;;;;;;7.85;4.30;;;;;;;17.32;60.95;98756.51;1728691;81;21214;-76
2022/05/21 04:59:46;;;;;;;7.80;3.80;;;;;;;17.44;61.30;98746.27;1725528;83;20992;-75
2022/05/21 05:02:13;;;;;;;5.85;3.75;;;;;;;17.54;60.30;98746.92;1756930;81;21084;-75
2022/05/21 05:04:40;;;;;;;15.38;6.00;;;;;;;17.61;59.92;98742.83;1756738;81;21080;-76
2022/05/21 05:07:08;;;;;;;11.57;3.77;;;;;;;17.71;60.98;98737.66;1725475;83;21078;-76
2022/05/21 05:09:40;;;;;;;12.45;3.80;;;;;;;17.81;60.42;98734.16;1756922;81;21126;-76
2022/05/21 05:12:08;;;;;;;15.43;5.15;;;;;;;17.93;59.81;98735.55;1756753;81;20991;-76
2022/05/21 05:14:37;;;;;;;11.03;3.67;;;;;;;18.05;59.51;98733.25;1725492;83;21106;-75
2022/05/21 05:17:05;;;;;;;7.65;4.30;;;;;;;18.13;59.02;98733.50;1756895;81;21561;-75
2022/05/21 05:19:33;;;;;;;10.50;3.70;;;;;;;18.19;59.38;98732.20;1756578;81;21076;-76
2022/05/21 05:22:00;;;;;;;12.75;4.30;;;;;;;18.25;59.14;98721.04;1725919;83;21511;-75
2022/05/21 05:24:26;;;;;;;16.57;3.83;;;;;;;18.29;58.89;98718.98;1724997;83;21135;-76
2022/05/21 05:26:53;;;;;;;13.50;4.28;;;;;;;18.33;58.97;98719.11;1756971;81;21623;-75
2022/05/21 05:29:19;;;;;;;15.32;4.03;;;;;;;18.40;58.81;98729.63;1756908;81;21960;-75
2022/05/21 05:31:45;;;;;;;10.25;4.12;;;;;;;18.47;59.19;98716.17;1725553;83;21114;-76
2022/05/21 05:34:12;;;;;;;9.45;4.00;;;;;;;18.62;58.98;98715.92;1725521;83;21104;-75
2022/05/21 05:36:39;;;;;;;14.47;3.65;;;;;;;18.77;58.69;98709.84;1756689;81;21027;-76
2022/05/21 05:39:06;;;;;;;8.05;4.33;;;;;;;18.88;58.25;98708.03;1757174;81;21066;-75
2022/05/21 05:41:33;;;;;;;12.93;3.70;;;;;;;19.00;58.29;98713.34;1725286;82;21091;-76
2022/05/21 05:43:59;;;;;;;6.30;3.08;;;;;;;19.11;57.87;98710.14;1704381;81;21078;-74
2022/05/21 05:46:26;;;;;;;9.23;4.58;;;;;;;19.16;57.40;98700.41;1735232;82;21647;-75
2022/05/21 05:48:53;;;;;;;8.70;3.42;;;;;;;19.18;57.09;98705.61;1735692;82;21418;-76
2022/05/21 05:51:19;;;;;;;4.08;3.50;;;;;;;19.13;57.37;98693.98;1735351;82;21006;-75
2022/05/21 05:53:48;;;;;;;10.30;3.58;;;;;;;19.12;57.45;98696.31;1735822;82;21156;-76
2022/05/21 05:56:14;;;;;;;7.40;3.75;;;;;;;19.14;57.94;98688.19;1735735;82;21042;-76
2022/05/21 06:01:27;;;;;;;10.25;3.87;;;;;;;19.20;56.93;98692.52;1735606;82;21061;-75
2022/05/21 06:03:54;;;;;;;8.05;3.75;;;;;;;19.21;57.24;98678.20;1735726;82;21121;-74
2022/05/21 06:06:21;;;;;;;13.15;3.85;;;;;;;19.18;57.01;98681.14;1736012;82;21117;-75
2022/05/21 06:08:48;;;;;;;9.15;3.80;;;;;;;19.20;57.46;98682.32;1735761;82;21116;-75
2022/05/21 06:11:15;;;;;;;9.60;3.85;;;;;;;19.23;57.22;98674.06;1735717;82;21029;-75
2022/05/21 06:13:43;;;;;;;15.88;4.50;;;;;;;19.26;57.17;98678.66;1735798;82;21116;-76
2022/05/21 06:16:10;;;;;;;13.53;4.05;;;;;;;19.26;57.85;98673.31;1735845;82;21523;-75
2022/05/21 06:18:37;;;;;;;14.73;5.33;;;;;;;19.30;57.46;98674.77;1735864;82;21611;-76
2022/05/21 06:21:05;;;;;;;15.80;4.72;;;;;;;19.39;57.06;98672.30;1736018;82;21484;-75
2022/05/21 06:23:32;;;;;;;14.68;5.22;;;;;;;19.45;57.30;98670.43;1736001;82;21095;-74
2022/05/21 06:26:00;;;;;;;22.05;4.00;;;;;;;19.54;57.58;98669.66;1735876;82;21041;-75
2022/05/21 06:28:28;;;;;;;11.68;3.98;;;;;;;19.63;56.82;98664.86;1735803;82;21022;-75
2022/05/21 06:30:57;;;;;;;17.02;4.03;;;;;;;19.68;56.77;98664.47;1734186;81;21996;-75
2022/05/21 06:33:27;;;;;;;22.35;4.00;;;;;;;19.73;56.38;98661.41;1732561;82;21462;-75
2022/05/21 06:36:12;;;;;;;16.02;4.15;;;;;;;19.72;55.70;98670.38;1732589;82;21124;-74
2022/05/21 06:38:39;;;;;;;13.72;4.15;;;;;;;19.70;55.60;98673.19;1731961;82;21050;-75
2022/05/21 06:41:06;;;;;;;9.78;3.67;;;;;;;19.71;56.96;98667.37;1732671;82;21051;-75
2022/05/21 06:43:33;;;;;;;16.85;4.33;;;;;;;19.78;55.88;98672.56;1732493;82;21128;-74
2022/05/21 06:45:59;;;;;;;13.00;4.47;;;;;;;19.82;56.12;98681.52;1732616;82;21061;-76
2022/05/21 06:48:27;;;;;;;6.72;3.92;;;;;;;19.84;55.51;98686.73;1732270;82;21054;-74
2022/05/21 06:50:54;;;;;;;11.28;4.00;;;;;;;19.84;55.40;98673.38;1732401;82;21537;-75
2022/05/21 06:53:21;;;;;;;15.80;3.47;;;;;;;19.84;56.41;98667.55;1732664;82;20975;-74
2022/05/21 06:55:48;;;;;;;18.25;5.25;;;;;;;19.94;55.42;98662.26;1732589;82;21047;-74
2022/05/21 06:58:15;;;;;;;7.37;3.95;;;;;;;20.00;55.73;98663.03;1732400;82;21043;-74
2022/05/21 07:00:43;;;;;;;8.90;3.67;;;;;;;20.08;54.42;98660.20;1732325;82;21144;-75
2022/05/21 07:03:09;;;;;;;11.90;3.80;;;;;;;20.12;54.50;98665.63;1732071;82;21395;-75
2022/05/21 07:08:24;;;;;;;;;;;;;;;20.11;54.34;98654.60;1734822;82;21073;-74
2022/05/21 07:10:51;;;;;;;8.23;3.77;;;;;;;20.11;54.05;98655.94;1732589;82;20500;-75
2022/05/21 07:13:20;;;;;;;7.20;3.60;;;;;;;20.11;54.43;98655.94;1703389;82;21800;-74
2022/05/21 07:15:48;;;;;;;5.12;4.00;;;;;;;20.10;54.31;98652.41;1732047;82;21026;-75
2022/05/21 07:18:18;;;;;;;12.98;3.92;;;;;;;20.14;54.73;98644.95;1732729;82;21046;-74
2022/05/21 07:20:47;;;;;;;9.28;3.67;;;;;;;20.20;55.20;98647.09;1732478;82;21534;-75
2022/05/21 07:23:13;;;;;;;8.05;3.45;;;;;;;20.32;55.31;98632.64;1732217;82;21006;-76
2022/05/21 07:25:40;;;;;;;10.18;3.70;;;;;;;20.40;54.11;98628.80;1732455;82;21507;-75
2022/05/21 07:28:08;;;;;;;5.00;3.72;;;;;;;20.50;53.87;98622.64;1732048;82;21110;-75
2022/05/21 07:30:35;;;;;;;10.00;3.60;;;;;;;20.56;54.13;98632.29;1738760;82;21091;-74
2022/05/21 07:33:02;;;;;;;12.63;3.90;;;;;;;20.61;54.08;98622.53;1743444;82;21074;-74
2022/05/21 07:35:29;;;;;;;14.60;4.17;;;;;;;20.69;54.24;98609.81;1743456;82;21076;-74
2022/05/21 07:37:56;;;;;;;10.98;4.28;;;;;;;20.81;53.68;98607.85;1743653;82;21160;-74
2022/05/21 07:40:26;;;;;;;5.08;3.72;;;;;;;20.88;54.03;98600.95;1720285;82;21147;-74
2022/05/21 07:42:53;;;;;;;8.43;3.60;;;;;;;20.94;52.87;98601.73;1743518;82;21083;-74
2022/05/21 07:45:20;;;;;;;9.30;3.30;;;;;;;20.93;52.38;98592.01;1743501;82;21114;-75
2022/05/21 07:47:47;;;;;;;7.90;3.70;;;;;;;20.88;52.52;98585.77;1743555;82;21035;-75
2022/05/21 07:50:17;;;;;;;15.00;3.75;;;;;;;20.91;52.21;98581.95;1746021;81;21092;-74
2022/05/21 07:52:45;;;;;;;6.22;3.50;;;;;;;20.99;52.49;98582.59;1752419;81;21611;-75
2022/05/21 07:55:12;;;;;;;10.05;3.17;;;;;;;21.13;52.50;98573.64;1752627;81;21072;-74
2022/05/21 07:57:39;;;;;;;12.90;3.17;;;;;;;21.30;52.13;98569.38;1752414;81;21071;-75
2022/05/21 08:00:07;;;;;;;14.45;3.70;;;;;;;21.46;49.93;98566.08;1752755;81;21476;-75
2022/05/21 08:02:42;;;;;;;5.62;3.25;;;;;;;21.56;51.17;98570.60;1751991;81;21063;-75
2022/05/21 08:05:08;;;;;;;6.20;3.25;;;;;;;21.68;50.62;98561.38;1752108;81;21561;-74
2022/05/21 08:07:35;;;;;;;7.58;3.15;;;;;;;21.83;50.03;98557.73;1752155;81;21560;-75
2022/05/21 08:10:01;;;;;;;10.93;3.47;;;;;;;21.97;50.22;98559.06;1752136;81;21063;-75
2022/05/21 08:12:28;;;;;;;8.73;3.33;;;;;;;22.05;49.20;98565.86;1752741;81;21120;-75
2022/05/21 08:14:55;;;;;;;17.62;3.22;;;;;;;22.09;49.75;98560.56;1752622;81;21146;-75
2022/05/21 08:17:22;;;;;;;9.80;3.75;;;;;;;22.18;50.24;98565.52;1752531;81;21033;-75
2022/05/21 08:19:49;;;;;;;7.15;3.25;;;;;;;22.32;49.08;98561.50;1752367;81;21064;-74
2022/05/21 08:27:46;;;;;;;;;;;;;;;22.63;47.49;98562.81;1755122;81;21715;-75
2022/05/21 08:30:13;;;;;;;6.60;3.02;;;;;;;22.67;46.97;98551.79;1745816;81;20201;-74
2022/05/21 08:32:40;;;;;;;11.43;3.15;;;;;;;22.71;46.90;98553.16;1732240;82;21026;-75
2022/05/21 08:35:07;;;;;;;6.97;2.95;;;;;;;22.79;46.69;98550.55;1732328;82;21098;-74
2022/05/21 08:37:35;;;;;;;8.73;3.10;;;;;;;22.85;45.55;98538.34;1732328;82;21105;-74
2022/05/21 08:40:02;;;;;;;5.87;3.00;;;;;;;22.92;44.96;98533.55;1732495;82;21118;-74
2022/05/21 08:42:37;;;;;;;10.10;2.55;;;;;;;22.97;45.20;98541.97;1732020;82;21065;-74
2022/05/21 08:45:19;;;;;;;5.62;2.70;;;;;;;23.07;44.91;98548.62;1732813;82;21046;-76
2022/05/21 08:47:48;;;;;;;15.30;5.72;;;;;;;23.10;43.86;98542.08;1730443;82;21046;-76
2022/05/21 08:50:17;;;;;;;13.48;3.52;;;;;;;23.07;44.90;98541.08;1732764;82;21832;-76
2022/05/21 08:53:02;;;;;;;12.85;3.05;;;;;;;23.09;44.73;98532.37;1731916;82;21168;-76
2022/05/21 08:55:41;;;;;;;14.28;3.00;;;;;;;23.07;45.08;98531.69;1732208;82;21592;-76
2022/05/21 08:58:19;;;;;;;20.17;3.30;;;;;;;23.10;44.76;98523.30;1732241;82;21124;-75
2022/05/21 09:00:46;;;;;;;9.83;2.55;;;;;;;23.14;45.31;98526.03;1732413;82;21545;-75
2022/05/21 09:03:18;;;;;;;15.08;3.30;;;;;;;23.23;44.82;98527.75;1703002;82;21062;-74
2022/05/21 09:06:12;;;;;;;7.72;3.25;;;;;;;23.30;44.16;98524.80;1732254;82;21124;-76
2022/05/21 09:09:12;;;;;;;8.43;3.33;;;;;;;23.32;44.44;98525.47;1732312;82;21019;-76
2022/05/21 09:11:52;;;;;;;6.03;2.58;;;;;;;23.33;44.43;98522.28;1731387;82;21523;-76
2022/05/21 09:14:42;;;;;;;13.13;6.15;;;;;;;23.24;43.72;98515.20;1718152;82;21612;-76
2022/05/21 09:17:19;;;;;;;7.75;4.28;;;;;;;23.14;44.69;98512.61;1732169;82;21113;-76
2022/05/21 09:19:55;;;;;;;7.40;3.50;;;;;;;23.08;44.69;98506.53;1732213;82;21274;-76
2022/05/21 09:22:22;;;;;;;12.63;2.80;;;;;;;23.03;45.06;98518.20;1730232;82;21057;-74
2022/05/21 09:24:58;;;;;;;9.43;2.87;;;;;;;22.94;44.99;98525.35;1732221;82;21010;-76
2022/05/21 09:27:38;;;;;;;6.22;2.47;;;;;;;22.81;45.27;98532.45;1732068;82;21140;-76
2022/05/21 09:30:22;;;;;;;6.70;2.95;;;;;;;22.68;45.55;98534.69;1732103;82;20974;-76
2022/05/21 09:32:56;;;;;;;18.95;3.85;;;;;;;22.56;46.34;98548.34;1732430;82;21150;-75
2022/05/21 09:35:32;;;;;;;19.57;3.15;;;;;;;22.45;47.74;98572.19;1732391;82;21066;-74
2022/05/21 09:38:15;;;;;;;18.62;3.67;;;;;;;22.09;53.24;98584.67;1729183;82;21031;-75
2022/05/21 09:40:42;;;;;;;23.77;3.42;;;;;;;21.48;55.23;98603.44;1731962;82;21046;-75
2022/05/21 09:46:28;;;;;;;7.42;3.83;;;;;;;20.44;61.43;98613.84;1708407;82;21123;-75
2022/05/21 09:49:15;;;;;;;23.77;6.55;;;;;;;19.77;64.41;98601.00;1732456;82;21117;-77
2022/05/21 09:51:42;;;;;;;13.38;5.97;;;;;;;19.24;67.14;98603.27;1732664;82;21652;-77
2022/05/21 09:54:25;;;;;;;10.65;4.47;;;;;;;18.87;69.40;98592.22;1679993;82;21776;-76
2022/05/21 09:56:54;;;;;;;8.68;3.80;;;;;;;18.61;71.08;98582.34;1732702;82;21093;-74
2022/05/21 09:59:24;;;;;;;10.78;3.42;;;;;;;18.40;72.37;98573.83;1732272;82;21150;-76
2022/05/21 10:01:54;;;;;;;6.20;4.05;;;;;;;18.25;74.19;98582.58;1735376;82;21118;-76
2022/05/21 10:04:41;;;;;;;10.08;4.60;;;;;;;18.15;74.95;98569.16;1735816;82;21063;-77
2022/05/21 10:10:59;;;;;;;22.75;5.70;;;;;;;18.18;76.22;98568.92;1735729;82;21039;-76
2022/05/21 10:13:43;;;;;;;10.68;4.40;;;;;;;18.15;77.22;98557.68;1736269;82;21134;-77
2022/05/21 10:16:40;;;;;;;17.15;5.22;;;;;;;18.05;77.54;98548.25;1721710;82;26685;-76
2022/05/21 10:19:20;;;;;;;16.00;7.75;;;;;;;18.00;78.25;98551.78;1735944;82;21137;-77
2022/05/21 10:22:23;;;;;;;13.83;7.03;;;;;;;17.92;79.49;98556.41;1735486;82;21062;-76
2022/05/21 10:25:07;;;;;;;7.30;4.45;;;;;;;17.85;79.83;98548.99;1735504;82;21522;-77
2022/05/21 10:28:04;;;;;;;10.18;4.80;;;;;;;17.79;80.44;98533.88;1735857;82;21094;-77
2022/05/21 10:31:03;;;;;;;13.38;5.47;;;;;;;17.77;80.41;98510.55;1736248;81;21683;-75
2022/05/21 10:33:58;;;;;;;5.75;3.90;;;;;;;17.74;80.60;98505.97;1748950;81;21126;-77
2022/05/21 10:36:49;;;;;;;10.35;4.72;;;;;;;17.70;81.14;98505.37;1749758;81;21585;-77
2022/05/21 10:39:40;;;;;;;9.43;4.58;;;;;;;17.67;82.03;98500.75;1722426;83;21061;-77
2022/05/21 10:42:38;;;;;;;10.60;6.95;;;;;;;17.58;81.73;98485.05;1720802;83;21483;-77
2022/05/21 10:45:33;;;;;;;8.75;4.97;;;;;;;17.53;82.12;98473.94;1722309;83;21063;-76
2022/05/21 10:48:24;;;;;;;7.62;5.30;;;;;;;17.50;82.59;98482.16;1722734;83;21143;-76
2022/05/21 10:51:07;;;;;;;10.18;6.08;;;;;;;17.46;83.08;98498.34;1720804;83;21103;-76
2022/05/21 10:54:08;;;;;;;9.68;5.65;;;;;;;17.48;83.47;98510.69;1722467;83;21004;-77
2022/05/21 10:56:56;;;;;;;10.48;5.03;;;;;;;17.44;83.39;98495.47;1722157;83;21155;-77
2022/05/21 10:59:31;;;;;;;8.38;5.05;;;;;;;17.41;83.49;98481.08;1722448;82;21080;-77
2022/05/21 11:02:08;;;;;;;8.55;4.85;;;;;;;17.41;83.71;98468.63;1722527;83;21064;-77
2022/05/21 11:05:02;;;;;;;8.20;4.45;;;;;;;17.48;84.12;98462.83;1714987;83;21513;-76
2022/05/21 11:07:49;;;;;;;7.33;4.75;;;;;;;17.58;83.98;98449.14;1722228;83;21476;-76
2022/05/21 11:11:02;;;;;;;9.90;4.15;;;;;;;17.75;83.90;98454.42;1722570;82;21080;-76
2022/05/21 11:13:39;;;;;;;8.63;4.12;;;;;;;17.92;83.64;98451.28;1722170;83;21520;-76
2022/05/21 11:16:20;;;;;;;7.40;4.80;;;;;;;18.14;83.78;98439.70;1717051;83;21083;-76
2022/05/21 11:18:53;;;;;;;8.95;5.03;;;;;;;18.30;82.39;98428.61;1722492;83;21048;-76
2022/05/21 11:21:28;;;;;;;8.50;4.53;;;;;;;18.46;80.81;98427.31;1722895;83;21707;-76
2022/05/21 11:24:33;;;;;;;7.70;4.60;;;;;;;18.63;81.58;98433.89;1722493;83;21169;-76
2022/05/21 11:27:10;;;;;;;;;;;;;;;18.73;81.50;98432.97;1705081;83;21127;-76
2022/05/21 11:30:05;;;;;;;;;;;;;;;18.86;81.85;98431.47;1716104;83;20727;-76
2022/05/21 11:38:41;;;;;;;7.15;4.58;;;;;;;18.94;78.28;98398.30;1701096;84;21778;-75
2022/05/21 11:41:29;;;;;;;7.83;4.62;;;;;;;18.92;77.92;98394.94;1671674;85;21074;-76
2022/05/21 11:46:59;;;;;;;9.40;4.42;;;;;;;18.78;78.05;98395.27;1671497;85;22472;-75
2022/05/21 11:49:46;;;;;;;10.60;4.78;;;;;;;18.73;77.39;98390.33;1697364;84;21045;-75
2022/05/21 11:52:37;;;;;;;5.53;4.25;;;;;;;18.67;77.36;98386.02;1671550;85;21517;-75
2022/05/21 11:55:17;;;;;;;7.33;4.72;;;;;;;18.60;77.96;98391.53;1700857;84;21508;-77
2022/05/21 11:57:53;;;;;;;13.40;5.80;;;;;;;18.60;77.87;98372.38;1674618;84;21073;-77
2022/05/21 12:00:28;;;;;;;6.90;4.83;;;;;;;18.67;77.99;98362.87;1685290;85;21107;-77
2022/05/21 12:03:02;;;;;;;9.08;4.87;;;;;;;18.80;77.48;98361.83;1685283;85;21080;-77
2022/05/21 12:05:38;;;;;;;7.72;5.65;;;;;;;18.88;76.70;98354.05;1685293;85;21111;-77
2022/05/21 12:08:18;;;;;;;14.13;5.00;;;;;;;18.90;76.70;98348.92;1685193;85;21041;-78
2022/05/21 12:11:11;;;;;;;8.33;4.12;;;;;;;18.96;76.84;98346.69;1685421;85;21022;-77
2022/05/21 12:14:15;;;;;;;5.55;4.08;;;;;;;19.04;76.09;98341.53;1685251;85;21152;-77
2022/05/21 12:16:49;;;;;;;6.60;3.80;;;;;;;19.20;74.66;98333.86;1685405;85;21081;-76
2022/05/21 12:19:53;;;;;;;7.92;4.55;;;;;;;19.46;74.16;98320.00;1685509;85;21141;-76
2022/05/21 12:22:44;;;;;;;11.95;5.22;;;;;;;19.72;73.07;98316.77;1685294;85;22085;-74
2022/05/21 12:25:34;;;;;;;8.05;3.90;;;;;;;20.00;70.18;98323.95;1685349;85;22070;-75